< Cyclone 199708 1997 Season Cyclone 199710 >
Cyclone 199709 (PANCHO)
General InformationTrack Information on Google MapsDetailed Wind InformationList of All Images || ResourceGoogle EarthGE AnimationAtom FeedGeoJSON
Detalied Best Track (Time Zone = UTC)
Year Month Day Hour Lat. Long. Pressure (hPa) Wind (kt) Class Image Chart
1997 1 18 07 -9.5 96.2 1006 0 0 Image --
1997 1 19 07 -9.2 95.6 1004 21 2 Image --
1997 1 19 13 -9.4 95.9 1002 23 2 Image --
1997 1 19 19 -9.5 96.0 998 29 2 Image --
1997 1 20 01 -9.7 96.2 995 35 3 Image --
1997 1 20 07 -9.9 96.3 990 41 3 Image --
1997 1 20 10 -10.1 96.2 985 47 3 Image --
1997 1 20 13 -10.4 96.3 980 54 4 Image --
1997 1 20 16 -10.7 96.2 975 60 4 Image --
1997 1 20 19 -11.0 95.9 965 70 5 Image --
1997 1 20 22 -11.2 95.7 955 80 5 Image --
1997 1 21 01 -11.4 95.4 940 93 5 Image --
1997 1 21 04 -11.6 95.1 925 105 5 Image --
1997 1 21 07 -11.8 94.8 915 111 5 Image --
1997 1 21 10 -12.1 94.5 915 111 5 Image --
1997 1 21 13 -12.3 94.1 915 111 5 Image --
1997 1 21 16 -12.5 93.6 915 111 5 Image --
1997 1 21 19 -12.6 93.1 915 111 5 Image --
1997 1 21 22 -12.7 92.6 915 111 5 Image --
1997 1 22 01 -12.8 92.1 920 107 5 Image --
1997 1 22 04 -12.9 91.7 925 105 5 Image --
1997 1 22 07 -13.0 91.3 930 101 5 Image --
1997 1 22 10 -13.0 91.0 935 97 5 Image --
1997 1 22 13 -13.1 90.7 940 93 5 Image --
1997 1 22 16 -13.1 90.5 945 89 5 Image --
1997 1 22 19 -13.1 90.3 945 89 5 Image --
1997 1 22 22 -13.2 90.1 945 89 5 Image --
1997 1 23 01 -13.2 89.9 940 93 5 Image --
1997 1 23 04 -13.3 89.7 935 97 5 Image --
1997 1 23 07 -13.3 89.7 935 97 5 Image --
1997 1 23 10 -13.4 89.7 940 93 5 Image --
1997 1 23 13 -13.5 89.8 945 89 5 Image --
1997 1 23 16 -13.6 89.9 950 84 5 Image --
1997 1 23 19 -13.8 90.0 955 80 5 Image --
1997 1 23 22 -13.9 90.1 960 76 5 Image --
1997 1 24 01 -14.0 90.2 970 66 5 Image --
1997 1 24 04 -14.0 90.2 980 54 4 Image --
1997 1 24 10 -14.0 90.2 985 47 3 Image --
1997 1 24 16 -14.1 90.3 990 41 3 Image --
1997 1 24 22 -14.2 90.4 990 41 3 Image --
1997 1 25 04 -14.3 90.5 990 41 3 Image --
1997 1 25 10 -14.4 90.6 990 41 3 Image --
1997 1 25 16 -14.5 90.6 990 41 3 Image --
1997 1 25 22 -14.6 90.7 990 41 3 Image --
1997 1 26 01 -14.6 90.7 990 41 3 Image --
1997 1 26 04 -14.5 90.4 990 41 3 Image --
1997 1 26 07 -14.3 90.6 990 41 3 Image --
1997 1 26 10 -14.1 90.6 995 35 3 Image --
1997 1 26 16 -13.6 90.6 998 29 2 Image --
1997 1 26 22 -13.2 90.6 998 29 2 Image --
1997 1 27 04 -12.8 90.6 998 29 2 Image --
1997 1 27 07 -12.5 90.6 998 29 2 Image --
1997 1 27 10 -11.9 90.9 998 29 2 Image --
1997 1 27 16 -11.1 91.1 995 35 3 Image --
1997 1 27 22 -10.3 91.3 990 41 3 Image --
1997 1 28 04 -9.9 91.5 985 47 3 Image --
1997 1 28 10 -9.9 91.6 985 47 3 Image --
1997 1 28 16 -10.0 91.9 980 54 4 Image --
1997 1 28 22 -10.2 92.4 980 54 4 Image --
1997 1 29 01 -10.5 92.7 975 60 4 Image --
1997 1 29 04 -10.9 92.9 975 60 4 Image --
1997 1 29 07 -11.3 93.1 975 60 4 Image --
1997 1 29 10 -11.7 93.1 975 60 4 Image --
1997 1 29 16 -12.5 92.9 975 60 4 Image --
1997 1 29 22 -13.2 92.6 975 60 4 Image --
1997 1 30 01 -13.6 92.4 975 60 4 Image --
1997 1 30 04 -13.9 92.1 975 60 4 Image --
1997 1 30 10 -14.3 91.2 970 66 5 Image --
1997 1 30 16 -14.6 90.4 970 66 5 Image --
1997 1 30 22 -14.9 89.6 965 70 5 Image --
1997 1 31 04 -15.1 88.8 965 70 5 Image --
1997 1 31 07 -15.1 88.5 965 70 5 Image --
1997 1 31 10 -15.1 88.1 960 76 5 Image --
1997 1 31 16 -15.0 87.5 960 76 5 Image --
1997 1 31 22 -15.0 86.9 955 80 5 Image --
1997 2 1 01 -14.9 86.6 950 84 5 Image --
1997 2 1 04 -14.9 86.3 945 89 5 Image --
1997 2 1 07 -14.9 86.0 940 93 5 Image --
1997 2 1 10 -15.0 85.7 940 93 5 Image --
1997 2 1 16 -15.3 85.3 940 93 5 Image --
1997 2 1 22 -15.5 85.0 935 97 5 Image --
1997 2 2 01 -15.7 84.9 940 93 5 Image --
1997 2 2 04 -15.9 84.9 945 89 5 Image --
1997 2 2 07 -16.2 85.0 950 84 5 Image --
1997 2 2 10 -16.5 85.2 955 80 5 Image --
1997 2 2 16 -16.9 85.5 965 70 5 Image --
1997 2 2 22 -17.2 85.7 965 70 5 Image --
1997 2 3 04 -17.5 85.9 970 66 5 Image --
1997 2 3 16 -17.8 86.4 980 54 4 Image --
1997 2 4 04 -18.1 87.0 990 41 3 Image --
1997 2 5 04 -19.3 84.1 1000 27 2 Image --
1997 2 6 07 -20.3 81.2 1000 27 2 Image --
1997 2 7 07 -18.7 76.2 1000 27 2 Image --
< Cyclone 199708 1997 Season Cyclone 199710 >

Help